Time;durP1;ratioP1;P1;durP2;ratioP2;P2;SDS_P1;SDS_P2;PMS_P1;PMS_P2;Temp;Humidity;BMP_temperature;BMP_pressure;BME280_temperature;BME280_humidity;BME280_pressure;Samples;Min_cycle;Max_cycle;Signal;HPM_P1;HPM_P2
2023/09/10 00:00:49;;;;;;;9.25;6.30;;;20.80;99.90;;;;;;5019773;28;20380;-90
2023/09/10 00:03:15;;;;;;;13.50;6.70;;;20.80;99.90;;;;;;5002179;28;20053;-90
2023/09/10 00:05:41;;;;;;;11.07;6.40;;;20.80;99.90;;;;;;5019355;28;20045;-91
2023/09/10 00:08:07;;;;;;;12.05;6.35;;;20.70;99.90;;;;;;4998865;28;20025;-92
2023/09/10 00:10:33;;;;;;;10.40;5.68;;;20.70;99.90;;;;;;5015087;28;20481;-90
2023/09/10 00:12:58;;;;;;;12.82;5.93;;;20.70;99.90;;;;;;4998434;28;20037;-91
2023/09/10 00:15:24;;;;;;;13.05;6.82;;;20.60;99.90;;;;;;4998326;28;20425;-91
2023/09/10 00:17:51;;;;;;;12.95;5.93;;;20.60;99.90;;;;;;4998974;28;20029;-90
2023/09/10 00:20:17;;;;;;;10.85;6.38;;;20.50;99.90;;;;;;4998584;28;20396;-90
2023/09/10 00:22:42;;;;;;;10.27;6.43;;;20.50;99.90;;;;;;5015356;28;20030;-90
2023/09/10 00:25:09;;;;;;;9.32;6.25;;;20.50;99.90;;;;;;4997942;28;20030;-91
2023/09/10 00:27:35;;;;;;;11.00;6.60;;;20.50;99.90;;;;;;4997459;28;20481;-92
2023/09/10 00:30:01;;;;;;;11.45;6.80;;;20.40;99.90;;;;;;4997450;28;20030;-91
2023/09/10 00:32:27;;;;;;;10.00;5.93;;;20.40;99.90;;;;;;4997634;28;20026;-91
2023/09/10 00:34:52;;;;;;;11.73;6.20;;;20.30;99.90;;;;;;4999462;28;20054;-91
2023/09/10 00:37:18;;;;;;;9.45;5.63;;;20.30;99.90;;;;;;5001778;28;20064;-91
2023/09/10 00:39:44;;;;;;;10.07;6.60;;;20.20;99.90;;;;;;5014999;28;20109;-90
2023/09/10 00:42:10;;;;;;;13.13;7.43;;;20.20;99.90;;;;;;4996541;28;20186;-91
2023/09/10 00:44:37;;;;;;;9.68;6.10;;;20.20;99.90;;;;;;5016065;28;20097;-89
2023/09/10 00:47:04;;;;;;;15.07;7.07;;;20.10;99.90;;;;;;5016387;28;20026;-91
2023/09/10 00:49:30;;;;;;;11.73;7.00;;;20.20;99.90;;;;;;4996611;28;20482;-90
2023/09/10 00:52:00;;;;;;;10.73;6.30;;;20.10;99.90;;;;;;4996585;28;20065;-91
2023/09/10 00:54:30;;;;;;;8.55;6.35;;;20.10;99.90;;;;;;4996561;28;20049;-91
2023/09/10 00:56:56;;;;;;;16.35;7.60;;;20.10;99.90;;;;;;4996619;28;20465;-92
2023/09/10 00:59:21;;;;;;;16.60;7.63;;;20.00;99.90;;;;;;4996519;28;20033;-91
2023/09/10 01:01:48;;;;;;;15.07;7.20;;;20.00;99.90;;;;;;4996527;28;20117;-91
2023/09/10 01:04:14;;;;;;;13.25;7.25;;;19.90;99.90;;;;;;4996385;28;20080;-91
2023/09/10 01:06:40;;;;;;;10.52;6.40;;;19.90;99.90;;;;;;4996635;28;20029;-91
2023/09/10 01:09:07;;;;;;;8.70;6.03;;;19.80;99.90;;;;;;4996218;28;20122;-90
2023/09/10 01:11:33;;;;;;;9.48;6.32;;;19.80;99.90;;;;;;5012771;28;20114;-91
2023/09/10 01:14:07;;;;;;;9.18;6.60;;;19.80;99.90;;;;;;5026323;28;20030;-90
2023/09/10 01:16:47;;;;;;;14.93;7.22;;;19.70;99.90;;;;;;5008461;28;20026;-90
2023/09/10 01:19:42;;;;;;;8.63;6.72;;;19.60;99.90;;;;;;5015561;28;20018;-91
2023/09/10 01:22:35;;;;;;;12.38;6.53;;;19.60;99.90;;;;;;5016179;28;20057;-90
2023/09/10 01:25:02;;;;;;;11.82;7.25;;;19.50;99.90;;;;;;4999828;28;20532;-89
2023/09/10 01:27:28;;;;;;;11.77;7.68;;;19.50;99.90;;;;;;4999723;28;20065;-90
2023/09/10 01:29:54;;;;;;;9.65;6.95;;;19.50;99.90;;;;;;5002281;28;20034;-89
2023/09/10 01:32:51;;;;;;;14.70;6.60;;;19.40;99.90;;;;;;4979819;28;20026;-91
2023/09/10 01:35:25;;;;;;;9.70;6.78;;;19.30;99.90;;;;;;4979776;28;20498;-89
2023/09/10 01:37:59;;;;;;;10.80;6.88;;;19.30;99.90;;;;;;4980441;28;20030;-89
2023/09/10 01:40:33;;;;;;;12.32;7.18;;;19.30;99.90;;;;;;4979397;28;20285;-90
2023/09/10 01:43:02;;;;;;;15.35;7.03;;;19.20;99.90;;;;;;4997777;28;20113;-91
2023/09/10 01:45:28;;;;;;;12.40;7.23;;;19.20;99.90;;;;;;4979733;28;20106;-91
2023/09/10 01:47:54;;;;;;;12.23;7.20;;;19.20;99.90;;;;;;4996360;28;20146;-90
2023/09/10 01:50:20;;;;;;;11.27;7.47;;;19.20;99.90;;;;;;4979918;28;20033;-90
2023/09/10 01:52:46;;;;;;;12.40;7.15;;;19.20;99.90;;;;;;4980076;28;20061;-90
2023/09/10 01:55:12;;;;;;;9.98;6.80;;;19.20;99.90;;;;;;4980127;28;20078;-91
2023/09/10 01:57:37;;;;;;;10.43;6.90;;;19.10;99.90;;;;;;4980504;28;20117;-89
2023/09/10 02:00:06;;;;;;;8.27;6.45;;;19.10;99.90;;;;;;4980521;28;20106;-89
2023/09/10 02:02:33;;;;;;;12.95;7.40;;;19.10;99.90;;;;;;4996590;28;20034;-90
2023/09/10 02:04:59;;;;;;;10.48;7.47;;;19.10;99.90;;;;;;4995460;28;20031;-88
2023/09/10 02:07:25;;;;;;;11.85;7.05;;;19.00;99.90;;;;;;4980160;28;20030;-90
2023/09/10 02:09:50;;;;;;;18.00;7.88;;;19.00;99.90;;;;;;4979387;28;20030;-90
2023/09/10 02:12:16;;;;;;;18.10;6.63;;;19.00;99.90;;;;;;4979689;28;20022;-90
2023/09/10 02:14:47;;;;;;;11.82;6.85;;;19.00;99.90;;;;;;4978967;28;20065;-90
2023/09/10 02:17:13;;;;;;;13.43;6.93;;;19.00;99.90;;;;;;4997480;28;20026;-90
2023/09/10 02:19:39;;;;;;;15.57;7.32;;;18.90;99.90;;;;;;4997910;28;20038;-88
2023/09/10 02:22:05;;;;;;;10.60;6.43;;;18.90;99.90;;;;;;4981085;28;20482;-88
2023/09/10 02:24:30;;;;;;;14.15;6.95;;;18.90;99.90;;;;;;4984639;28;20037;-90
2023/09/10 02:26:56;;;;;;;17.63;7.47;;;18.80;99.90;;;;;;4986777;28;20038;-91
2023/09/10 02:29:22;;;;;;;12.93;7.18;;;18.80;99.90;;;;;;4998293;28;20081;-91
2023/09/10 02:31:47;;;;;;;11.07;6.70;;;18.80;99.90;;;;;;5007244;28;20018;-90
2023/09/10 02:34:13;;;;;;;11.52;7.10;;;18.70;99.90;;;;;;5028068;28;20096;-90
2023/09/10 02:36:39;;;;;;;10.38;6.53;;;18.70;99.90;;;;;;5022063;28;20054;-90
2023/09/10 02:39:04;;;;;;;12.98;7.15;;;18.70;99.90;;;;;;4999070;28;20492;-91
2023/09/10 02:41:30;;;;;;;13.90;6.32;;;18.70;99.90;;;;;;5016537;28;20532;-90
2023/09/10 02:43:56;;;;;;;10.20;7.45;;;18.60;99.90;;;;;;4999994;28;20489;-91
2023/09/10 02:46:21;;;;;;;12.27;7.22;;;18.60;99.90;;;;;;5002439;28;20021;-89
2023/09/10 02:48:47;;;;;;;14.48;7.65;;;18.60;99.90;;;;;;5008103;28;20026;-91
2023/09/10 02:51:12;;;;;;;16.88;8.60;;;18.50;99.90;;;;;;5006390;28;20026;-91
2023/09/10 02:53:38;;;;;;;13.18;8.40;;;18.50;99.90;;;;;;5022013;28;20068;-91
2023/09/10 02:56:04;;;;;;;11.50;6.72;;;18.50;99.90;;;;;;5021791;28;20081;-90
2023/09/10 02:58:30;;;;;;;11.52;6.75;;;18.50;99.90;;;;;;4999819;28;20094;-91
2023/09/10 03:01:01;;;;;;;10.25;6.95;;;18.40;99.90;;;;;;4999501;28;20030;-91
2023/09/10 03:03:27;;;;;;;14.52;7.05;;;18.40;99.90;;;;;;4999122;28;20112;-91
2023/09/10 03:05:53;;;;;;;10.13;6.88;;;18.30;99.90;;;;;;4998712;28;20513;-89
2023/09/10 03:08:18;;;;;;;9.32;6.80;;;18.30;99.90;;;;;;4998440;28;20060;-90
2023/09/10 03:10:44;;;;;;;11.10;6.85;;;18.30;99.90;;;;;;5014293;28;20034;-90
2023/09/10 03:13:09;;;;;;;10.55;7.07;;;18.30;99.90;;;;;;4990049;28;20121;-90
2023/09/10 03:15:35;;;;;;;15.05;8.27;;;18.30;99.90;;;;;;4998197;28;20608;-90
2023/09/10 03:18:01;;;;;;;11.55;7.78;;;18.20;99.90;;;;;;4997989;28;20022;-90
2023/09/10 03:20:26;;;;;;;13.13;7.35;;;18.10;99.90;;;;;;4997793;28;20057;-90
2023/09/10 03:22:57;;;;;;;11.35;7.47;;;18.00;99.90;;;;;;4998021;28;20121;-91
2023/09/10 03:25:23;;;;;;;12.88;7.53;;;18.00;99.90;;;;;;4998604;28;20113;-90
2023/09/10 03:27:49;;;;;;;10.88;7.00;;;17.90;99.90;;;;;;5014830;28;20057;-91
2023/09/10 03:30:16;;;;;;;10.88;7.00;;;17.90;99.90;;;;;;4980768;28;20097;-90
2023/09/10 03:32:42;;;;;;;11.80;7.55;;;17.90;99.90;;;;;;4978975;28;20062;-90
2023/09/10 03:35:08;;;;;;;15.02;7.72;;;17.90;99.90;;;;;;4989742;28;20481;-89
2023/09/10 03:37:33;;;;;;;13.20;7.60;;;17.90;99.90;;;;;;4997366;28;20027;-90
2023/09/10 03:39:59;;;;;;;15.75;7.28;;;17.90;99.90;;;;;;4999200;28;20042;-88
2023/09/10 03:42:25;;;;;;;13.70;7.88;;;17.90;99.90;;;;;;5000401;28;20016;-89
2023/09/10 03:44:50;;;;;;;11.23;7.25;;;17.80;99.90;;;;;;5016123;28;20029;-91
2023/09/10 03:47:16;;;;;;;12.68;7.82;;;17.80;99.90;;;;;;5000354;28;20018;-90
2023/09/10 03:49:42;;;;;;;11.98;7.57;;;17.80;99.90;;;;;;4981437;28;20038;-90
2023/09/10 03:52:15;;;;;;;13.13;8.52;;;17.80;99.90;;;;;;4997891;28;20018;-91
2023/09/10 03:54:40;;;;;;;16.38;8.50;;;17.70;99.90;;;;;;4979213;28;20046;-91
2023/09/10 03:57:06;;;;;;;16.30;9.40;;;17.70;99.90;;;;;;4978404;28;20030;-91
2023/09/10 03:59:32;;;;;;;16.60;9.27;;;17.60;99.90;;;;;;4978616;28;20478;-91
2023/09/10 04:01:59;;;;;;;12.05;8.43;;;17.50;99.90;;;;;;4994910;28;20034;-91
2023/09/10 04:04:25;;;;;;;14.48;8.88;;;17.50;99.90;;;;;;4978869;28;20044;-89
2023/09/10 04:06:50;;;;;;;16.05;10.02;;;17.50;99.90;;;;;;4978464;28;20200;-90
2023/09/10 04:09:16;;;;;;;17.90;8.70;;;17.40;99.90;;;;;;4978464;28;20022;-91
2023/09/10 04:11:42;;;;;;;13.23;8.05;;;17.40;99.90;;;;;;4978452;28;20520;-90
2023/09/10 04:14:08;;;;;;;10.25;7.68;;;17.40;99.90;;;;;;4979089;28;20070;-90
2023/09/10 04:16:33;;;;;;;12.10;7.80;;;17.40;99.90;;;;;;4994069;28;20031;-90
2023/09/10 04:18:59;;;;;;;12.82;7.43;;;17.40;99.90;;;;;;4978235;28;20038;-91
2023/09/10 04:21:25;;;;;;;10.52;7.43;;;17.50;99.90;;;;;;4978287;28;20026;-90
2023/09/10 04:23:50;;;;;;;14.77;8.27;;;17.50;99.90;;;;;;4986450;28;20018;-90
2023/09/10 04:26:16;;;;;;;12.65;8.93;;;17.50;99.90;;;;;;4989215;28;20034;-90
2023/09/10 04:28:42;;;;;;;15.73;8.93;;;17.50;99.90;;;;;;4990527;28;20045;-92
2023/09/10 04:31:13;;;;;;;11.30;8.45;;;17.40;99.90;;;;;;5019010;28;20044;-91
2023/09/10 04:33:39;;;;;;;14.88;8.27;;;17.40;99.90;;;;;;4997437;28;20022;-91
2023/09/10 04:36:05;;;;;;;11.13;8.18;;;17.30;99.90;;;;;;4996599;28;20053;-91
2023/09/10 04:38:30;;;;;;;14.98;8.10;;;17.30;99.90;;;;;;4996813;28;20109;-91
2023/09/10 04:40:56;;;;;;;13.80;8.13;;;17.20;99.90;;;;;;4996612;28;20084;-90
2023/09/10 04:43:22;;;;;;;13.30;8.38;;;17.20;99.90;;;;;;4996721;28;20037;-91
2023/09/10 04:45:47;;;;;;;12.80;8.98;;;17.10;99.90;;;;;;4996655;28;20022;-91
2023/09/10 04:48:13;;;;;;;14.20;8.10;;;17.00;99.90;;;;;;5012868;28;20034;-90
2023/09/10 04:50:40;;;;;;;12.73;7.32;;;17.10;99.90;;;;;;4996279;28;20073;-90
2023/09/10 04:53:05;;;;;;;10.50;6.78;;;17.00;99.90;;;;;;4996638;28;20021;-90
2023/09/10 04:55:31;;;;;;;10.80;7.70;;;17.00;99.90;;;;;;5000148;28;20156;-90
2023/09/10 04:57:57;;;;;;;12.05;6.50;;;17.00;99.90;;;;;;5018004;28;20085;-89
2023/09/10 05:00:22;;;;;;;11.63;7.22;;;17.00;99.90;;;;;;5000007;28;20053;-91
2023/09/10 05:02:48;;;;;;;12.63;7.55;;;17.10;99.90;;;;;;5000543;28;20512;-90
2023/09/10 05:05:14;;;;;;;9.48;6.95;;;17.00;99.90;;;;;;5000020;28;20042;-90
2023/09/10 05:07:40;;;;;;;9.15;6.50;;;17.00;99.90;;;;;;5000025;28;20469;-90
2023/09/10 05:10:06;;;;;;;10.40;6.93;;;17.00;99.90;;;;;;4999875;28;20113;-90
2023/09/10 05:12:32;;;;;;;10.57;6.70;;;16.90;99.90;;;;;;4999888;28;20018;-91
2023/09/10 05:14:58;;;;;;;11.02;7.28;;;17.00;99.90;;;;;;4999669;28;20042;-90
2023/09/10 05:17:23;;;;;;;8.95;6.93;;;17.00;99.90;;;;;;4999962;28;20433;-89
2023/09/10 05:19:50;;;;;;;10.18;6.50;;;17.00;99.90;;;;;;5017129;28;20034;-90
2023/09/10 05:22:16;;;;;;;8.32;6.32;;;16.90;99.90;;;;;;4999855;28;20072;-90
2023/09/10 05:24:41;;;;;;;7.13;5.70;;;16.90;99.90;;;;;;4999206;28;20538;-88
2023/09/10 05:27:07;;;;;;;10.35;6.43;;;16.90;99.90;;;;;;4999320;28;20022;-89
2023/09/10 05:29:33;;;;;;;10.65;6.15;;;17.00;99.90;;;;;;4999567;28;20030;-89
2023/09/10 05:31:58;;;;;;;13.07;6.55;;;16.90;99.90;;;;;;4999358;28;20036;-89
2023/09/10 05:34:24;;;;;;;8.85;6.72;;;16.90;99.90;;;;;;4999527;28;20060;-89
2023/09/10 05:36:51;;;;;;;11.95;7.55;;;16.80;99.90;;;;;;5015992;28;20532;-90
2023/09/10 05:39:17;;;;;;;14.80;6.88;;;16.80;99.90;;;;;;5000540;28;20026;-88
2023/09/10 05:41:42;;;;;;;12.15;7.78;;;16.70;99.90;;;;;;5023250;28;20028;-89
2023/09/10 05:44:08;;;;;;;8.63;6.95;;;16.70;99.90;;;;;;5006198;28;20033;-90
2023/09/10 05:46:33;;;;;;;11.77;6.93;;;16.60;99.90;;;;;;5003800;28;20029;-89
2023/09/10 05:48:59;;;;;;;9.40;6.03;;;16.60;99.90;;;;;;5004891;28;20045;-88
2023/09/10 05:51:25;;;;;;;11.32;6.18;;;16.60;99.90;;;;;;5019852;28;20036;-90
2023/09/10 05:53:50;;;;;;;9.55;6.20;;;16.60;99.90;;;;;;5002182;28;20026;-90
2023/09/10 05:56:16;;;;;;;11.07;6.38;;;16.60;99.90;;;;;;5001022;28;20030;-90
2023/09/10 05:58:42;;;;;;;9.50;6.07;;;16.60;99.90;;;;;;5002960;28;20094;-89
2023/09/10 06:01:08;;;;;;;13.27;5.65;;;16.70;99.90;;;;;;5000089;28;20508;-90
2023/09/10 06:03:33;;;;;;;9.77;6.25;;;16.70;99.90;;;;;;5000130;28;20121;-89
2023/09/10 06:06:01;;;;;;;10.65;6.10;;;16.80;99.90;;;;;;5016000;28;20069;-89
2023/09/10 06:08:31;;;;;;;8.27;5.75;;;16.80;99.90;;;;;;4999487;28;20049;-88
2023/09/10 06:10:57;;;;;;;11.20;5.80;;;16.80;99.90;;;;;;5000469;28;20116;-90
2023/09/10 06:13:22;;;;;;;11.57;5.30;;;16.80;99.90;;;;;;4999544;28;20089;-90
2023/09/10 06:15:48;;;;;;;11.57;6.43;;;16.80;99.90;;;;;;4998872;28;20065;-91
2023/09/10 06:18:14;;;;;;;10.25;6.00;;;16.90;99.90;;;;;;4998746;28;20152;-90
2023/09/10 06:20:39;;;;;;;8.05;5.90;;;16.90;99.90;;;;;;4999001;28;20026;-88
2023/09/10 06:23:05;;;;;;;7.88;5.45;;;16.90;99.90;;;;;;5018875;28;20037;-88
2023/09/10 06:25:32;;;;;;;8.63;6.03;;;16.90;99.90;;;;;;5004202;28;20053;-90
2023/09/10 06:28:00;;;;;;;10.73;5.65;;;16.90;99.90;;;;;;5011552;28;20030;-89
2023/09/10 06:30:25;;;;;;;7.05;5.63;;;16.90;99.90;;;;;;4998457;28;20022;-90
2023/09/10 06:32:51;;;;;;;10.93;6.43;;;17.00;99.90;;;;;;4998214;28;20500;-91
2023/09/10 06:35:17;;;;;;;11.07;7.28;;;16.90;99.90;;;;;;4997799;28;20049;-91
2023/09/10 06:37:43;;;;;;;10.48;7.40;;;16.90;99.90;;;;;;5015875;28;20053;-89
2023/09/10 06:40:09;;;;;;;13.10;7.28;;;16.80;99.90;;;;;;4998308;28;20030;-91
2023/09/10 06:42:35;;;;;;;13.73;8.00;;;16.80;99.90;;;;;;4998933;28;20109;-90
2023/09/10 06:45:01;;;;;;;12.45;7.90;;;16.80;99.90;;;;;;4999282;28;20399;-89
2023/09/10 06:47:27;;;;;;;16.77;7.85;;;16.80;99.90;;;;;;4998589;28;20072;-90
2023/09/10 06:49:53;;;;;;;15.70;7.80;;;16.70;99.90;;;;;;4997758;28;20041;-90
2023/09/10 06:52:19;;;;;;;13.70;8.93;;;16.70;99.90;;;;;;4998064;28;20420;-90
2023/09/10 06:54:44;;;;;;;11.48;7.72;;;16.80;99.90;;;;;;4998304;28;20172;-89
2023/09/10 06:57:13;;;;;;;12.07;7.35;;;16.80;99.90;;;;;;4998506;28;20121;-89
2023/09/10 06:59:45;;;;;;;11.95;7.43;;;16.80;99.90;;;;;;4999071;28;20026;-91
2023/09/10 07:02:10;;;;;;;14.63;8.25;;;16.80;99.90;;;;;;4998525;28;20026;-92
2023/09/10 07:04:36;;;;;;;9.30;6.88;;;16.90;99.90;;;;;;4996285;28;20358;-90
2023/09/10 07:07:02;;;;;;;11.05;6.88;;;16.90;99.90;;;;;;5015652;28;20030;-91
2023/09/10 07:09:28;;;;;;;11.57;7.63;;;17.00;99.90;;;;;;4998705;28;20120;-90
2023/09/10 07:11:54;;;;;;;12.65;7.35;;;17.00;99.90;;;;;;4997853;28;20036;-90
2023/09/10 07:14:21;;;;;;;10.48;6.32;;;17.10;99.90;;;;;;5015065;28;20046;-90
2023/09/10 07:16:48;;;;;;;8.02;6.30;;;17.10;99.90;;;;;;4997002;28;20453;-90
2023/09/10 07:19:14;;;;;;;9.90;6.22;;;17.20;99.90;;;;;;4998332;28;20392;-90
2023/09/10 07:21:40;;;;;;;13.07;6.10;;;17.30;99.90;;;;;;4998831;28;20482;-90
2023/09/10 07:24:08;;;;;;;9.32;6.55;;;17.40;99.90;;;;;;5026990;28;20038;-90
2023/09/10 07:26:34;;;;;;;9.82;6.05;;;17.50;99.90;;;;;;5015004;28;20029;-90
2023/09/10 07:29:00;;;;;;;8.70;6.43;;;17.60;99.90;;;;;;5010870;28;20016;-88
2023/09/10 07:31:25;;;;;;;9.55;5.88;;;17.70;99.90;;;;;;5001876;28;20073;-88
2023/09/10 07:33:51;;;;;;;10.32;5.07;;;17.80;99.90;;;;;;4999132;28;20022;-89
2023/09/10 07:36:17;;;;;;;15.13;6.50;;;18.00;99.90;;;;;;4980871;28;20532;-91
2023/09/10 07:38:42;;;;;;;10.07;5.75;;;18.10;99.90;;;;;;4980287;28;20022;-89
2023/09/10 07:41:08;;;;;;;11.43;6.22;;;18.20;99.90;;;;;;4998370;28;20387;-90
2023/09/10 07:43:33;;;;;;;10.85;5.05;;;18.30;99.90;;;;;;4978380;28;20026;-89
2023/09/10 07:45:59;;;;;;;11.73;5.63;;;18.40;99.90;;;;;;4978485;28;20034;-89
2023/09/10 07:48:25;;;;;;;10.55;5.82;;;18.50;99.90;;;;;;4980433;28;20081;-90
2023/09/10 07:50:57;;;;;;;13.43;6.45;;;18.60;99.90;;;;;;4994163;28;20382;-91
2023/09/10 07:53:24;;;;;;;13.18;6.78;;;18.60;99.90;;;;;;4994824;28;20058;-91
2023/09/10 07:55:49;;;;;;;12.48;6.95;;;18.60;99.90;;;;;;4978176;28;20046;-90
2023/09/10 07:58:15;;;;;;;13.38;6.70;;;18.70;99.90;;;;;;4995486;28;20026;-90
2023/09/10 08:00:41;;;;;;;13.18;6.75;;;18.70;99.90;;;;;;4995913;28;20033;-88
2023/09/10 08:03:07;;;;;;;18.17;7.28;;;18.70;99.90;;;;;;4994000;28;20029;-91
2023/09/10 08:05:36;;;;;;;13.38;6.65;;;18.70;99.90;;;;;;4977960;28;20497;-89
2023/09/10 08:08:05;;;;;;;16.75;6.55;;;18.70;99.90;;;;;;4994464;28;20072;-90
2023/09/10 08:10:31;;;;;;;10.95;6.60;;;18.80;99.90;;;;;;4994101;28;20129;-91
2023/09/10 08:12:57;;;;;;;17.33;6.53;;;18.80;99.90;;;;;;4994128;28;20027;-91
2023/09/10 08:15:23;;;;;;;11.40;6.03;;;18.90;99.90;;;;;;4977896;28;20068;-91
2023/09/10 08:17:55;;;;;;;11.27;6.32;;;18.90;99.90;;;;;;4977826;28;20030;-91
2023/09/10 08:20:20;;;;;;;12.15;6.70;;;19.00;99.90;;;;;;4979538;28;20033;-90
2023/09/10 08:22:46;;;;;;;16.65;6.82;;;19.00;99.90;;;;;;4981055;28;20026;-90
2023/09/10 08:25:12;;;;;;;11.35;6.50;;;19.10;99.90;;;;;;4983203;28;20036;-91
2023/09/10 08:27:40;;;;;;;12.10;6.22;;;19.10;99.90;;;;;;4994189;28;20022;-92
2023/09/10 08:30:09;;;;;;;17.80;7.00;;;19.20;99.90;;;;;;4992927;28;20036;-91
2023/09/10 08:32:35;;;;;;;10.43;6.35;;;19.20;99.90;;;;;;5000536;28;20026;-91
2023/09/10 08:35:03;;;;;;;11.30;6.82;;;19.20;99.90;;;;;;5002712;28;20109;-90
2023/09/10 08:37:30;;;;;;;13.07;6.88;;;19.20;99.90;;;;;;5006772;28;20366;-90
2023/09/10 08:39:56;;;;;;;12.15;6.32;;;19.30;99.90;;;;;;5005917;28;20025;-91
2023/09/10 08:42:30;;;;;;;13.25;6.97;;;19.30;99.90;;;;;;5020134;28;20030;-90
2023/09/10 08:45:00;;;;;;;14.35;6.97;;;19.30;99.90;;;;;;5017568;28;20052;-91
2023/09/10 08:47:29;;;;;;;12.70;7.38;;;19.30;99.90;;;;;;4997976;28;20061;-90
2023/09/10 08:50:02;;;;;;;13.70;6.95;;;19.20;99.90;;;;;;4997287;28;20026;-91
2023/09/10 08:52:30;;;;;;;12.77;7.47;;;19.20;99.90;;;;;;4997049;28;20049;-90
2023/09/10 08:54:56;;;;;;;13.02;7.00;;;19.20;99.90;;;;;;5015005;28;20037;-90
2023/09/10 08:57:23;;;;;;;16.52;7.63;;;19.20;99.90;;;;;;4998994;28;20105;-89
2023/09/10 08:59:50;;;;;;;12.45;7.50;;;19.30;99.90;;;;;;4997062;28;20033;-90
2023/09/10 09:02:16;;;;;;;13.20;6.82;;;19.30;99.90;;;;;;5012147;28;20053;-91
2023/09/10 09:04:43;;;;;;;13.23;6.95;;;19.40;99.90;;;;;;4996480;28;20030;-90
2023/09/10 09:07:12;;;;;;;14.60;7.07;;;19.50;99.90;;;;;;4988336;28;20029;-91
2023/09/10 09:09:42;;;;;;;12.30;8.18;;;19.50;99.90;;;;;;5013812;28;20053;-90
2023/09/10 09:12:09;;;;;;;12.18;6.60;;;19.60;99.90;;;;;;5013432;28;20018;-91
2023/09/10 09:14:40;;;;;;;11.55;6.90;;;19.70;99.90;;;;;;4996023;28;20516;-91
2023/09/10 09:17:07;;;;;;;9.35;6.68;;;19.80;99.90;;;;;;4997180;28;20370;-90
2023/09/10 09:19:36;;;;;;;9.77;6.88;;;19.90;99.90;;;;;;5014207;28;20563;-92
2023/09/10 09:22:05;;;;;;;12.15;7.38;;;20.00;99.90;;;;;;4996959;28;20030;-92
2023/09/10 09:24:33;;;;;;;11.38;6.63;;;20.10;99.90;;;;;;4999715;28;20080;-93
2023/09/10 09:27:01;;;;;;;10.80;6.90;;;20.10;99.90;;;;;;4995552;28;20186;-92
2023/09/10 09:29:28;;;;;;;13.73;7.07;;;20.20;99.90;;;;;;4985463;28;20018;-90
2023/09/10 09:31:54;;;;;;;11.30;6.57;;;20.20;99.90;;;;;;4976121;28;20027;-92
2023/09/10 09:34:20;;;;;;;13.95;6.78;;;20.30;99.90;;;;;;4993112;28;20112;-91
2023/09/10 09:36:52;;;;;;;10.40;6.40;;;20.30;99.90;;;;;;4975920;28;20172;-90
2023/09/10 09:39:20;;;;;;;15.35;6.60;;;20.30;99.90;;;;;;4958018;28;20023;-91
2023/09/10 09:41:53;;;;;;;10.32;6.55;;;20.40;99.90;;;;;;4959916;28;20029;-92
2023/09/10 09:44:19;;;;;;;15.23;7.28;;;20.40;99.90;;;;;;4976202;28;20054;-92
2023/09/10 09:46:45;;;;;;;9.90;6.70;;;20.40;99.90;;;;;;4960023;28;20027;-92
2023/09/10 09:49:11;;;;;;;15.35;7.45;;;20.50;99.90;;;;;;4976229;28;20030;-91
2023/09/10 09:51:40;;;;;;;14.70;7.18;;;20.60;99.90;;;;;;4960063;28;20057;-91
2023/09/10 09:54:09;;;;;;;13.85;7.28;;;20.60;99.90;;;;;;4960320;28;20027;-90
2023/09/10 09:56:38;;;;;;;13.15;7.57;;;20.60;99.90;;;;;;4960093;28;20126;-91
2023/09/10 09:59:04;;;;;;;12.40;7.28;;;20.70;99.90;;;;;;4959998;28;20131;-91
2023/09/10 10:01:33;;;;;;;15.07;8.02;;;20.70;99.90;;;;;;4960374;28;20041;-91
2023/09/10 10:03:59;;;;;;;13.65;7.40;;;20.70;99.90;;;;;;4976049;28;20038;-91
2023/09/10 10:06:25;;;;;;;13.30;7.63;;;20.80;99.90;;;;;;4959979;28;20125;-92
2023/09/10 10:08:51;;;;;;;14.88;7.43;;;20.80;99.90;;;;;;4959531;28;20126;-91
2023/09/10 10:11:31;;;;;;;14.85;8.23;;;20.80;99.90;;;;;;4960187;28;20105;-92
2023/09/10 10:14:00;;;;;;;12.33;7.80;;;20.90;99.90;;;;;;4961630;28;20058;-91
2023/09/10 10:16:30;;;;;;;13.50;8.07;;;20.90;99.90;;;;;;4966508;28;20292;-89
2023/09/10 10:18:56;;;;;;;11.90;7.70;;;20.90;99.90;;;;;;4985925;28;20054;-89
2023/09/10 10:21:23;;;;;;;14.25;7.30;;;21.00;99.90;;;;;;4964504;28;20077;-90
2023/09/10 10:23:56;;;;;;;14.13;7.65;;;21.00;99.90;;;;;;4976201;28;20023;-89
2023/09/10 10:26:23;;;;;;;9.85;6.63;;;21.10;99.90;;;;;;4959653;28;20051;-90
2023/09/10 10:28:49;;;;;;;13.90;6.22;;;21.10;99.90;;;;;;4981248;28;20033;-91
2023/09/10 10:31:31;;;;;;;11.55;6.10;;;21.10;99.90;;;;;;4979263;28;20034;-91
2023/09/10 10:34:09;;;;;;;13.15;7.90;;;21.20;99.90;;;;;;4978739;28;20026;-89
2023/09/10 10:36:59;;;;;;;12.25;7.15;;;21.20;99.90;;;;;;5006536;28;20053;-90
2023/09/10 10:39:56;;;;;;;14.10;7.20;;;21.20;99.90;;;;;;5014626;28;20026;-91
2023/09/10 10:42:32;;;;;;;11.93;6.70;;;21.20;99.90;;;;;;5013904;28;20512;-91
2023/09/10 10:45:00;;;;;;;11.75;7.65;;;21.30;99.90;;;;;;5014435;28;20026;-91
2023/09/10 10:47:30;;;;;;;14.00;7.25;;;21.30;99.90;;;;;;5016410;28;20493;-91
2023/09/10 10:49:56;;;;;;;12.35;8.32;;;21.40;99.90;;;;;;5020394;28;20056;-91
2023/09/10 10:52:30;;;;;;;15.82;8.20;;;21.50;99.90;;;;;;5015900;28;20138;-92
2023/09/10 10:54:56;;;;;;;12.10;6.97;;;21.60;99.90;;;;;;5014413;28;20061;-91
2023/09/10 10:57:24;;;;;;;10.95;7.22;;;21.70;99.90;;;;;;5013780;28;20088;-92
2023/09/10 10:59:50;;;;;;;17.75;7.82;;;22.00;99.90;;;;;;5014080;28;20026;-88
2023/09/10 11:02:22;;;;;;;14.95;6.70;;;22.40;99.90;;;;;;5015149;28;20033;-89
2023/09/10 11:04:57;;;;;;;15.02;6.53;;;22.80;99.90;;;;;;5015583;28;20362;-90
2023/09/10 11:07:23;;;;;;;14.02;7.65;;;23.30;99.90;;;;;;5018222;28;20136;-92
2023/09/10 11:09:49;;;;;;;14.63;6.53;;;23.80;99.90;;;;;;5014743;28;20020;-90
2023/09/10 11:12:15;;;;;;;11.95;6.68;;;24.30;99.90;;;;;;5015626;28;20030;-90
2023/09/10 11:14:59;;;;;;;16.98;7.18;;;24.80;99.90;;;;;;5014347;28;20041;-90
2023/09/10 11:17:32;;;;;;;13.98;7.18;;;25.00;99.90;;;;;;5014665;28;20058;-91
2023/09/10 11:19:58;;;;;;;15.52;7.53;;;25.20;99.90;;;;;;5014747;28;20018;-90
2023/09/10 11:22:24;;;;;;;17.08;6.80;;;25.20;99.90;;;;;;5015693;28;20037;-90
2023/09/10 11:25:00;;;;;;;14.30;7.15;;;25.30;99.90;;;;;;5013490;28;20506;-89
2023/09/10 11:27:30;;;;;;;11.07;6.90;;;25.30;99.90;;;;;;5016313;28;20048;-91
2023/09/10 11:30:18;;;;;;;16.80;7.60;;;25.40;99.90;;;;;;5006358;28;20033;-90
2023/09/10 11:32:44;;;;;;;16.30;7.90;;;25.30;99.90;;;;;;5002748;28;20034;-90
2023/09/10 11:35:19;;;;;;;19.85;8.80;;;25.30;99.90;;;;;;5001137;28;20178;-93
2023/09/10 11:37:50;;;;;;;18.27;8.38;;;25.20;99.90;;;;;;5015368;28;20073;-91
2023/09/10 11:40:17;;;;;;;;;;;25.20;99.90;;;;;;4996125;28;20076;-90
2023/09/10 11:42:44;;;;;;;16.40;7.65;;;25.20;99.90;;;;;;4994864;28;19925;-91
2023/09/10 11:45:11;;;;;;;14.63;8.10;;;25.20;99.90;;;;;;4994820;28;20072;-90
2023/09/10 11:47:43;;;;;;;14.27;8.70;;;25.20;99.90;;;;;;4994576;28;20117;-90
2023/09/10 11:50:10;;;;;;;16.95;9.00;;;25.30;99.90;;;;;;4994065;28;20026;-91
2023/09/10 11:52:37;;;;;;;12.48;8.23;;;25.60;99.90;;;;;;4994008;28;20049;-92
2023/09/10 11:55:05;;;;;;;23.15;8.18;;;26.00;99.90;;;;;;5010709;28;20062;-92
2023/09/10 11:57:30;;;;;;;15.95;8.30;;;26.20;99.90;;;;;;4994601;28;20023;-91
2023/09/10 11:59:56;;;;;;;14.63;7.85;;;26.40;99.90;;;;;;4994286;28;20110;-90
2023/09/10 12:02:24;;;;;;;16.35;8.15;;;26.50;99.90;;;;;;5010332;28;20030;-92
2023/09/10 12:04:50;;;;;;;12.13;7.70;;;26.60;99.90;;;;;;4993517;28;20362;-91
2023/09/10 12:07:15;;;;;;;24.35;8.15;;;26.80;99.90;;;;;;4993648;28;20466;-91
2023/09/10 12:09:41;;;;;;;20.23;8.70;;;26.90;99.90;;;;;;5010063;28;20041;-91
2023/09/10 12:12:19;;;;;;;17.15;8.25;;;27.00;99.90;;;;;;4993721;28;20508;-92
2023/09/10 12:14:45;;;;;;;20.45;8.45;;;27.20;99.90;;;;;;5010316;28;20038;-91
2023/09/10 12:17:11;;;;;;;15.30;8.82;;;27.30;99.90;;;;;;4996097;28;20023;-91
2023/09/10 12:19:37;;;;;;;17.65;7.75;;;27.40;99.90;;;;;;5004052;28;20026;-91
2023/09/10 12:22:04;;;;;;;17.35;8.65;;;27.30;99.90;;;;;;4994721;28;20033;-88
2023/09/10 12:24:30;;;;;;;19.35;9.20;;;27.20;99.90;;;;;;4994494;28;20030;-94
2023/09/10 12:26:56;;;;;;;18.58;9.20;;;27.10;99.90;;;;;;4994289;28;20054;-90
2023/09/10 12:29:22;;;;;;;16.15;8.50;;;27.00;99.90;;;;;;5009380;28;20034;-90
2023/09/10 12:31:52;;;;;;;18.27;9.25;;;26.80;99.90;;;;;;4994113;28;20023;-90
2023/09/10 12:34:19;;;;;;;;;;;26.70;99.90;;;;;;5010461;28;20038;-90
2023/09/10 12:36:46;;;;;;;18.50;9.10;;;26.60;99.90;;;;;;5009936;28;20016;-89
2023/09/10 12:39:22;;;;;;;15.68;10.20;;;26.40;99.90;;;;;;5010129;28;20022;-91